Latest Weather Observations for Moranbah Airport

IDQ60801

Issued at 1:05 pm EST Saturday 25 October 2014 (issued every 30 minutes, with the page automatically refreshed every 10 minutes)

About weather observations | Map of weather stations | Latest weather observations for QLD | Other Formats
Station Details ID: 034035 Name: MORANBAH AIRPORT Lat: -22.06 Lon: 148.08 Height: 232.2 m
Data from the previous 72 hours. | See also: Recent months at Moranbah Airport
Date/Time
EST
Temp
°C
App
Temp
°C
Dew
Point
Rel
Hum
%
Delta-T
°C
Wind Press
QNH
hPa
Press
MSL
hPa
Rain
since 9 am
mm
Dir
 
Spd
km/h
Gust
km/h
Spd
kts
Gust
kts
25/01:00pm 30.9 27.9 9.2 26 12.3 E 15 30 8 16 1018.0 1016.8 0.0
25/12:30pm 31.0 28.3 10.4 28 11.9 E 15 22 8 12 1018.6 1017.4 0.0
25/12:00pm 30.3 27.5 11.3 31 11.1 ESE 17 28 9 15 1019.1 1017.9 0.0
25/11:30am 29.1 26.8 11.6 33 10.2 ENE 15 24 8 13 1019.5 1018.3 0.0
25/11:00am 28.7 25.6 12.2 36 9.7 ENE 20 26 11 14 1020.0 1018.9 0.0
25/10:30am 27.3 25.6 12.5 40 8.7 ESE 13 20 7 11 1020.6 1019.5 0.0
25/10:00am 26.3 26.2 13.8 46 7.4 ENE 7 17 4 9 1021.0 1019.9 0.0
25/09:30am 24.8 24.9 14.0 51 6.4 NNE 6 13 3 7 1021.5 1020.3 0.0
25/09:00am 23.8 23.4 14.2 55 5.7 N 9 17 5 9 1021.7 1020.5 0.0
25/08:30am 22.9 22.5 14.2 58 5.2 E 9 17 5 9 1021.8 1020.6 0.0
25/08:00am 22.1 22.3 14.7 63 4.4 ESE 7 15 4 8 1021.8 1020.6 0.0
25/07:30am 20.5 20.8 14.4 68 3.6 E 6 11 3 6 1021.7 1020.5 0.0
25/07:00am 20.0 20.2 14.6 71 3.2 ESE 7 11 4 6 1021.6 1020.4 0.0
25/06:30am 18.9 18.3 14.6 76 2.5 SE 11 13 6 7 1021.1 1020.0 0.0
25/06:00am 16.5 16.0 13.8 84 1.5 SSE 9 11 5 6 1020.6 1019.5 0.0
25/05:30am 15.4 14.3 13.2 87 1.2 SSE 11 13 6 7 1020.3 1019.2 0.0
25/05:00am 15.2 13.6 12.7 85 1.4 SSE 13 15 7 8 1019.9 1018.8 0.0
25/04:30am 15.4 14.2 12.9 85 1.4 SSE 11 13 6 7 1019.6 1018.5 0.0
25/04:00am 15.2 13.7 12.0 81 1.8 SSE 11 15 6 8 1019.4 1018.2 0.0
25/03:30am 15.6 13.4 12.2 80 1.9 SSE 15 17 8 9 1019.3 1018.1 0.0
25/03:00am 15.0 12.8 10.8 76 2.2 SSE 13 15 7 8 1019.1 1017.9 0.0
25/02:30am 15.5 13.4 11.1 75 2.4 SE 13 15 7 8 1019.1 1017.9 0.0
25/02:00am 16.2 13.8 11.4 73 2.6 SE 15 15 8 8 1019.3 1018.1 0.0
25/01:30am 15.6 13.2 9.9 69 3.0 SSE 13 15 7 8 1019.7 1018.6 0.0
25/01:00am 15.8 13.2 9.2 65 3.4 SE 13 13 7 7 1020.0 1018.9 0.0
25/12:30am 16.8 14.1 9.0 60 4.1 ESE 13 15 7 8 1020.3 1019.2 0.0
25/12:00am 16.5 13.0 7.4 55 4.6 ESE 15 17 8 9 1020.6 1019.5 0.0
 
Date/Time
EST
Temp
°C
App
Temp
°C
Dew
Point
Rel
Hum
%
Delta-T
°C
Wind Press
QNH
hPa
Press
MSL
hPa
Rain
since 9 am
mm
Dir
 
Spd
km/h
Gust
km/h
Spd
kts
Gust
kts
24/11:30pm 16.4 13.0 6.0 50 5.1 SE 13 17 7 9 1020.7 1019.6 0.0
24/11:00pm 19.2 17.1 6.7 44 6.3 SE 7 9 4 5 1020.9 1019.8 0.0
24/10:30pm 19.9 17.0 6.3 41 6.9 ESE 11 17 6 9 1021.0 1019.9 0.0
24/10:00pm 20.1 18.3 7.1 43 6.7 ESE 6 9 3 5 1020.9 1019.8 0.0
24/09:30pm 21.4 20.7 8.7 44 6.8 S 2 9 1 5 1020.7 1019.6 0.0
24/09:00pm 22.1 20.2 8.9 43 7.1 NNE 9 13 5 7 1020.5 1019.4 0.0
24/08:30pm 23.5 19.5 8.4 38 8.1 ENE 19 24 10 13 1020.0 1018.9 0.0
24/08:00pm 24.2 19.9 7.8 35 8.7 ENE 20 26 11 14 1019.5 1018.3 0.0
24/07:30pm 24.8 20.5 7.0 32 9.4 ENE 19 26 10 14 1019.1 1017.9 0.0
24/07:00pm 25.7 21.0 5.3 27 10.5 NE 19 26 10 14 1018.5 1017.3 0.0
24/06:30pm 26.8 21.9 5.1 25 11.2 NE 20 26 11 14 1018.1 1016.9 0.0
24/06:00pm 28.3 23.2 5.8 24 11.9 NE 22 28 12 15 1017.6 1016.4 0.0
24/05:30pm 29.9 25.1 7.2 24 12.4 ENE 22 32 12 17 1017.2 1016.0 0.0
24/05:00pm 31.1 26.2 6.9 22 13.2 E 22 32 12 17 1016.8 1015.6 0.0
24/04:30pm 31.5 27.1 7.2 22 13.4 E 20 37 11 20 1016.8 1015.6 0.0
24/04:00pm 31.7 26.5 7.4 22 13.4 ENE 24 30 13 16 1016.5 1015.4 0.0
24/03:30pm 31.2 26.9 7.0 22 13.2 ESE 19 28 10 15 1016.4 1015.3 0.0
24/03:00pm 32.0 27.4 8.3 23 13.3 E 22 35 12 19 1016.6 1015.5 0.0
24/02:36pm 32.0 25.5 8.3 23 13.3 E 32 65 17 35 1016.9 1015.7 0.0
24/02:35pm 32.4 27.5 8.6 23 13.4 SE 24 65 13 35 1016.6 1015.5 0.0
24/02:30pm 32.7 27.3 9.5 24 13.3 ESE 28 37 15 20 1017.0 1015.8 0.0
24/02:00pm 32.6 27.4 8.8 23 13.5 ESE 26 43 14 23 1017.3 1016.1 0.0
24/01:38pm 32.0 26.4 8.9 24 13.1 ESE 28 46 15 25 1017.8 1016.6 0.0
24/01:30pm 32.6 28.3 9.4 24 13.3 ESE 22 39 12 21 1017.8 1016.6 0.0
24/01:00pm 31.1 24.8 8.8 25 12.5 SE 32 43 17 23 1018.3 1017.1 0.0
24/12:30pm 30.7 23.9 7.8 24 12.7 ESE 33 41 18 22 1018.9 1017.7 0.0
24/12:00pm 30.3 25.2 9.2 27 11.9 ESE 26 43 14 23 1019.3 1018.1 0.0
24/11:39am 30.1 24.9 10.1 29 11.4 ESE 28 46 15 25 1019.5 1018.3 0.0
24/11:30am 29.7 23.7 8.7 27 11.7 SE 30 39 16 21 1019.6 1018.5 0.0
24/11:00am 28.4 24.3 10.1 32 10.4 SE 22 33 12 18 1020.0 1018.9 0.0
24/10:30am 27.4 23.6 11.0 36 9.4 E 22 39 12 21 1020.5 1019.4 0.0
24/10:00am 27.2 23.0 11.2 36 9.2 E 24 33 13 18 1020.9 1019.8 0.0
24/09:30am 26.0 22.7 11.0 39 8.5 ESE 19 28 10 15 1021.2 1020.1 0.0
24/09:00am 24.1 21.2 12.4 48 6.7 E 19 32 10 17 1021.6 1020.4 0.0
24/08:30am 22.8 20.9 13.0 54 5.7 E 15 24 8 13 1021.8 1020.6 0.0
24/08:00am 22.0 20.2 13.4 58 5.0 E 15 20 8 11 1021.8 1020.6 0.0
24/07:30am 20.8 19.5 13.7 64 4.1 ESE 13 19 7 10 1021.7 1020.5 0.0
24/07:00am 19.4 17.7 12.4 64 3.9 SE 13 15 7 8 1021.7 1020.5 0.0
24/06:30am 17.8 17.0 11.8 68 3.3 SE 7 9 4 5 1021.4 1020.2 0.0
24/06:00am 15.4 13.4 10.2 71 2.7 SSE 11 13 6 7 1020.8 1019.7 0.0
24/05:30am 14.3 11.9 10.1 76 2.2 SSE 13 15 7 8 1020.4 1019.3 0.0
24/05:00am 13.7 12.0 9.9 78 2.0 SSE 9 11 5 6 1020.0 1018.9 0.0
24/04:30am 12.7 12.4 8.8 77 2.0 CALM 0 0 0 0 1019.7 1018.6 0.0
24/04:00am 15.0 13.5 10.6 75 2.3 SE 9 9 5 5 1019.4 1018.2 0.0
24/03:30am 14.6 12.9 10.0 74 2.4 SSE 9 9 5 5 1019.5 1018.3 0.0
24/03:00am 14.9 12.9 10.3 74 2.4 SSE 11 13 6 7 1019.5 1018.3 0.0
24/02:30am 14.9 12.0 9.7 71 2.7 SE 15 17 8 9 1019.5 1018.3 0.0
24/02:00am 15.4 12.7 9.1 66 3.3 SSE 13 15 7 8 1019.5 1018.3 0.0
24/01:30am 15.8 13.1 8.8 63 3.6 SSE 13 13 7 7 1019.7 1018.6 0.0
24/01:00am 15.8 12.9 8.3 61 3.8 SE 13 17 7 9 1019.7 1018.6 0.0
24/12:30am 15.9 12.9 7.9 59 4.1 SSE 13 15 7 8 1020.1 1019.0 0.0
24/12:00am 16.9 13.8 7.3 53 4.8 SSE 13 13 7 7 1020.4 1019.3 0.0
 
Date/Time
EST
Temp
°C
App
Temp
°C
Dew
Point
Rel
Hum
%
Delta-T
°C
Wind Press
QNH
hPa
Press
MSL
hPa
Rain
since 9 am
mm
Dir
 
Spd
km/h
Gust
km/h
Spd
kts
Gust
kts
23/11:30pm 17.3 14.5 7.1 51 5.2 SSE 11 13 6 7 1020.4 1019.3 0.0
23/11:00pm 16.7 13.7 5.9 49 5.3 SE 11 13 6 7 1020.5 1019.4 0.0
23/10:30pm 18.6 15.8 6.8 46 6.0 E 11 15 6 8 1020.4 1019.3 0.0
23/10:00pm 18.7 15.4 6.2 44 6.2 E 13 13 7 7 1020.4 1019.3 0.0
23/09:30pm 20.5 17.8 7.2 42 6.9 E 11 13 6 7 1020.5 1019.4 0.0
23/09:00pm 21.5 19.3 7.7 41 7.2 ESE 9 9 5 5 1020.0 1018.9 0.0
23/08:30pm 22.9 19.7 8.6 40 7.7 ENE 15 24 8 13 1019.4 1018.2 0.0
23/08:00pm 24.0 20.2 9.2 39 8.1 NE 19 28 10 15 1018.8 1017.6 0.0
23/07:30pm 24.4 20.8 8.4 36 8.6 NE 17 22 9 12 1018.5 1017.3 0.0
23/07:00pm 25.2 20.3 4.9 27 10.3 NE 20 32 11 17 1018.1 1016.9 0.0
23/06:30pm 25.9 22.0 3.2 23 11.3 ESE 13 17 7 9 1017.4 1016.2 0.0
23/06:00pm 28.2 23.2 3.8 21 12.4 ESE 19 24 10 13 1017.0 1015.8 0.0
23/05:30pm 29.4 24.5 4.1 20 13.1 ESE 19 28 10 15 1016.6 1015.5 0.0
23/05:00pm 30.1 25.0 3.2 18 13.7 E 19 26 10 14 1016.4 1015.3 0.0
23/04:30pm 30.2 25.4 2.5 17 14.0 SE 17 24 9 13 1016.2 1015.1 0.0
23/04:00pm 31.2 25.3 4.1 18 14.1 SE 24 35 13 19 1016.0 1014.9 0.0
23/03:30pm 30.9 24.8 3.0 17 14.3 ESE 24 33 13 18 1016.0 1014.9 0.0
23/03:00pm 30.5 23.8 3.5 18 13.9 SE 28 41 15 22 1016.2 1015.1 0.0
23/02:30pm 31.3 25.1 4.2 18 14.2 SE 26 39 14 21 1016.4 1015.3 0.0
23/02:00pm 31.3 24.8 4.9 19 13.9 E 28 50 15 27 1016.9 1015.7 0.0
23/01:52pm 31.0 24.6 5.4 20 13.6 E 28 50 15 27 1016.9 1015.7 0.0
23/01:30pm 30.3 26.1 5.6 21 13.1 SE 17 26 9 14 1017.2 1016.0 0.0
23/01:04pm 29.9 23.6 5.9 22 12.8 E 28 46 15 25 1017.6 1016.4 0.0
23/01:00pm 29.9 22.9 5.9 22 12.8 E 32 46 17 25 1017.7 1016.5 0.0
23/12:56pm 30.0 23.8 6.0 22 12.8 E 28 46 15 25 1017.7 1016.5 0.0
23/12:30pm 29.0 22.9 6.4 24 12.1 ESE 28 43 15 23 1018.4 1017.2 0.0
23/12:00pm 29.0 22.7 7.6 26 11.7 ESE 30 46 16 25 1018.9 1017.7 0.0
23/11:31am 29.1 23.0 6.5 24 12.1 ESE 28 46 15 25 1019.4 1018.2 0.0
23/11:30am 28.7 22.8 7.3 26 11.6 ESE 28 41 15 22 1019.5 1018.3 0.0
23/11:11am 28.3 21.9 8.6 29 10.9 SE 32 50 17 27 1019.9 1018.8 0.0
23/11:00am 28.4 22.8 8.7 29 10.9 ESE 28 44 15 24 1020.1 1019.0 0.0
23/10:30am 27.4 22.4 9.7 33 9.9 ESE 26 35 14 19 1020.6 1019.5 0.0
23/10:00am 25.3 21.0 10.7 40 8.2 SE 24 30 13 16 1021.0 1019.9 0.0
23/09:30am 25.0 22.4 13.2 48 6.9 E 19 30 10 16 1021.1 1020.0 0.0
23/09:00am 24.0 22.6 14.4 55 5.7 E 15 22 8 12 1021.4 1020.2 0.0
23/08:30am 22.4 20.3 13.7 58 5.1 ENE 17 20 9 11 1021.5 1020.3 0.0
23/08:00am 21.3 18.8 14.2 64 4.2 ESE 20 26 11 14 1021.5 1020.3 0.0
23/07:30am 20.2 17.3 13.9 67 3.7 ESE 22 28 12 15 1021.4 1020.2 0.0
23/07:00am 19.3 17.3 13.9 71 3.1 SE 17 20 9 11 1021.2 1020.1 0.0
23/06:30am 17.3 16.2 14.2 82 1.8 SE 13 17 7 9 1021.0 1019.9 0.0
23/06:00am 15.1 13.7 13.5 90 0.9 SE 13 15 7 8 1020.7 1019.6 0.0
23/05:30am 14.3 12.7 12.7 90 0.9 SE 13 15 7 8 1020.5 1019.4 0.0
23/05:00am 14.7 13.2 13.1 90 0.9 SSE 13 15 7 8 1020.5 1019.4 0.0
23/04:30am 14.9 13.7 12.9 88 1.1 SSE 11 13 6 7 1020.3 1019.2 0.0
23/04:00am 14.9 14.1 12.9 88 1.1 SSE 9 13 5 7 1020.1 1019.0 0.0
23/03:30am 15.0 13.4 12.9 87 1.2 SSE 13 13 7 7 1020.2 1019.1 0.0
23/03:00am 15.3 13.9 13.3 88 1.1 SSE 13 15 7 8 1020.1 1019.0 0.0
23/02:30am 15.5 14.4 13.0 85 1.4 SSE 11 13 6 7 1020.4 1019.3 0.0
23/02:00am 15.8 14.7 13.1 84 1.5 SE 11 13 6 7 1020.5 1019.4 0.0
23/01:30am 16.0 14.8 12.7 81 1.8 SE 11 13 6 7 1020.9 1019.8 0.0
23/01:00am 17.1 16.4 13.2 78 2.2 ESE 9 13 5 7 1021.1 1020.0 0.0
23/12:30am 17.8 16.8 13.3 75 2.6 E 11 13 6 7 1021.6 1020.4 0.0
23/12:00am 18.4 17.5 13.7 74 2.7 E 11 15 6 8 1021.7 1020.5 0.0
 
Date/Time
EST
Temp
°C
App
Temp
°C
Dew
Point
Rel
Hum
%
Delta-T
°C
Wind Press
QNH
hPa
Press
MSL
hPa
Rain
since 9 am
mm
Dir
 
Spd
km/h
Gust
km/h
Spd
kts
Gust
kts
22/11:30pm 18.9 17.6 13.7 72 3.0 ENE 13 20 7 11 1021.7 1020.5 0.0
22/11:00pm 19.3 17.3 13.9 71 3.1 ENE 17 20 9 11 1021.6 1020.4 0.0
22/10:30pm 19.9 18.8 14.3 70 3.3 E 13 19 7 10 1021.6 1020.4 0.0
22/10:00pm 20.6 18.2 14.5 68 3.6 E 20 28 11 15 1021.2 1020.1 0.0
22/09:30pm 21.1 19.1 14.0 64 4.2 E 17 24 9 13 1020.5 1019.4 0.0
22/09:00pm 22.1 19.6 14.2 61 4.7 E 20 32 11 17 1020.1 1019.0 0.0
22/08:30pm 22.8 20.3 13.6 56 5.4 ENE 19 24 10 13 1019.7 1018.6 0.0
22/08:00pm 23.7 21.9 13.3 52 6.1 ENE 15 20 8 11 1019.4 1018.2 0.0
22/07:30pm 24.7 22.0 13.0 48 6.8 ENE 19 26 10 14 1019.1 1017.9 0.0
22/07:00pm 25.5 22.6 10.9 40 8.3 E 17 24 9 13 1018.8 1017.6 0.0
22/06:30pm 26.5 23.0 8.9 33 9.7 ESE 17 22 9 12 1018.6 1017.4 0.0
22/06:00pm 27.2 23.8 9.1 32 10.0 SE 17 22 9 12 1018.4 1017.2 0.0
22/05:30pm 28.7 23.3 9.4 30 10.8 ESE 28 37 15 20 1018.2 1017.0 0.0
22/05:00pm 28.5 24.7 9.7 31 10.6 ESE 20 28 11 15 1018.0 1016.8 0.0
22/04:30pm 29.4 24.4 9.5 29 11.2 ESE 26 39 14 21 1017.9 1016.7 0.0
22/04:00pm 28.8 23.8 9.5 30 10.8 ESE 26 35 14 19 1017.8 1016.6 0.0
22/03:30pm 30.0 25.3 10.5 30 11.2 ESE 26 35 14 19 1017.8 1016.6 0.0
22/03:00pm 29.0 24.2 10.2 31 10.7 E 26 33 14 18 1018.1 1016.9 0.0
22/02:30pm 30.4 27.4 11.9 32 10.9 SE 19 28 10 15 1018.3 1017.1 0.0
22/02:00pm 29.9 25.4 11.4 32 10.8 ESE 26 39 14 21 1018.8 1017.6 0.0
22/01:30pm 29.4 27.0 11.5 33 10.4 ESE 15 26 8 14 1019.3 1018.1 0.0

Other Formats:

Comma delimited format used in spreadsheet applications
http://www.bom.gov.au/fwo/IDQ60801/IDQ60801.94397.axf

JavaScript Object Notation format (JSON) in row-major order
http://www.bom.gov.au/fwo/IDQ60801/IDQ60801.94397.json